Time;durP1;ratioP1;P1;durP2;ratioP2;P2;SDS_P1;SDS_P2;PMS_P1;PMS_P2;Temp;Humidity;BMP_temperature;BMP_pressure;BME280_temperature;BME280_humidity;BME280_pressure;Samples;Min_cycle;Max_cycle;Signal;HPM_P1;HPM_P2
2022/02/24 14:50:23;;;;;;;8.50;3.47;;;;;;;12.53;35.00;98925.28;4559818;75;22743;-95
2022/02/24 14:56:26;;;;;;;7.22;3.58;;;;;;;12.30;35.25;98913.06;4506960;77;22462;-92
2022/02/24 15:02:29;;;;;;;9.25;3.42;;;;;;;12.07;35.13;98918.89;4512704;77;21310;-90
2022/02/24 15:08:35;;;;;;;11.22;4.95;;;;;;;11.81;35.40;98911.49;4508499;77;21602;-89
2022/02/24 15:14:38;;;;;;;10.73;4.47;;;;;;;11.57;35.90;98901.17;4511678;77;21090;-91
2022/02/24 15:20:40;;;;;;;10.08;4.08;;;;;;;11.31;36.34;98898.06;4508407;77;21066;-89
2022/02/24 15:26:42;;;;;;;20.48;3.95;;;;;;;11.06;36.50;98891.62;4477906;77;21308;-90
2022/02/24 15:32:45;;;;;;;10.82;3.98;;;;;;;10.90;36.80;98885.05;4512418;77;21050;-91
2022/02/24 15:38:58;;;;;;;920.73;492.87;;;;;;;10.69;37.07;98884.09;4516681;78;21040;-89
2022/02/24 15:44:59;;;;;;;1100.30;557.10;;;;;;;10.57;37.44;98878.91;4507125;77;21091;-90
2022/02/24 15:51:07;;;;;;;177.32;76.20;;;;;;;10.45;37.41;98866.86;4448412;78;21602;-93
2022/02/24 15:57:11;;;;;;;979.15;451.87;;;;;;;10.31;37.87;98868.88;4271869;81;21533;-90
2022/02/24 16:03:16;;;;;;;113.72;51.92;;;;;;;9.98;38.17;98865.35;4440933;79;21004;-90
2022/02/24 16:09:34;;;;;;;65.25;25.90;;;;;;;9.63;38.56;98868.47;4423453;79;21003;-90
2022/02/24 16:15:45;;;;;;;29.98;11.90;;;;;;;9.40;39.29;98863.09;4439521;78;21594;-90
2022/02/24 16:21:53;;;;;;;27.70;13.22;;;;;;;9.15;38.79;98851.03;4440515;78;21568;-89
2022/02/24 16:28:01;;;;;;;49.58;21.15;;;;;;;8.95;37.99;98840.02;4431620;80;21048;-95
2022/02/24 16:34:36;;;;;;;36.85;14.80;;;;;;;8.53;38.83;98839.92;4435014;78;21052;-90
2022/02/24 16:40:45;;;;;;;272.58;111.62;;;;;;;8.07;39.13;98851.34;4441504;78;21027;-90
2022/02/24 16:46:46;;;;;;;426.52;191.22;;;;;;;7.71;39.34;98858.63;4445325;77;21566;-90
2022/02/24 16:52:56;;;;;;;233.05;106.47;;;;;;;7.43;39.85;98859.41;4467129;79;21629;-90
2022/02/24 16:59:00;;;;;;;95.72;41.80;;;;;;;7.22;39.81;98862.45;4301932;82;21050;-91
2022/02/24 17:05:17;;;;;;;128.12;56.33;;;;;;;6.73;40.07;98851.81;4469473;78;21032;-90
2022/02/24 17:11:31;;;;;;;;;;;;;;;6.52;40.51;98856.73;4472096;78;21055;-91
2022/02/24 17:17:32;;;;;;;158.78;69.75;;;;;;;6.22;41.25;98859.64;4468782;79;20140;-90
2022/02/24 17:23:54;;;;;;;851.35;411.52;;;;;;;6.04;41.31;98850.25;4472553;79;21039;-90
2022/02/24 17:30:01;;;;;;;134.50;53.20;;;;;;;5.82;41.66;98840.75;4475778;79;20979;-90
2022/02/24 17:36:11;;;;;;;109.05;47.35;;;;;;;5.61;42.05;98852.34;4471338;79;21531;-90
2022/02/24 17:42:18;;;;;;;699.20;362.25;;;;;;;5.23;42.48;98840.38;4470067;77;21012;-90
2022/02/24 17:48:27;;;;;;;109.07;48.13;;;;;;;4.97;43.25;98842.11;4271239;81;21044;-91
2022/02/24 17:54:31;;;;;;;1087.18;571.63;;;;;;;4.77;43.67;98841.69;4387109;79;21945;-90
2022/02/24 18:00:33;;;;;;;215.57;88.00;;;;;;;4.61;44.33;98837.52;4387524;79;21075;-90
2022/02/24 18:06:43;;;;;;;599.70;292.25;;;;;;;4.38;44.76;98843.16;4387426;80;21542;-90
2022/02/24 18:13:04;;;;;;;241.73;107.43;;;;;;;4.24;45.29;98831.06;4380052;80;21345;-92
2022/02/24 18:19:37;;;;;;;244.13;110.20;;;;;;;4.05;45.91;98828.89;4368001;81;21086;-90
2022/02/24 18:25:49;;;;;;;52.83;21.30;;;;;;;3.85;45.76;98811.35;4394501;79;21072;-90
2022/02/24 18:31:53;;;;;;;337.45;128.25;;;;;;;3.56;46.45;98806.86;4224209;83;21631;-90
2022/02/24 18:38:09;;;;;;;169.72;65.83;;;;;;;3.22;47.12;98797.70;4204827;84;21014;-90
2022/02/24 18:44:23;;;;;;;76.62;33.48;;;;;;;3.00;48.02;98805.60;4217446;84;21034;-91
2022/02/24 18:50:25;;;;;;;609.05;320.35;;;;;;;2.77;48.33;98811.08;4372122;79;21049;-91
2022/02/24 18:56:26;;;;;;;187.53;86.97;;;;;;;2.58;48.98;98803.98;4320614;80;21007;-90
2022/02/24 19:02:53;;;;;;;167.03;68.67;;;;;;;2.54;49.43;98807.09;4284322;82;21168;-91
2022/02/24 19:09:04;;;;;;;383.98;166.82;;;;;;;2.38;49.71;98799.88;4382105;81;21078;-90
2022/02/24 19:15:40;;;;;;;97.42;40.45;;;;;;;2.23;49.68;98790.41;4247644;81;21082;-89
2022/02/24 19:21:52;;;;;;;342.45;165.22;;;;;;;2.05;50.33;98784.84;4385440;79;21339;-90
2022/02/24 19:28:48;;;;;;;483.25;207.05;;;;;;;1.79;50.87;98794.14;4370922;79;21050;-91
2022/02/24 19:34:54;;;;;;;694.62;270.23;;;;;;;1.64;51.52;98784.10;4306675;81;21068;-91
2022/02/24 19:41:03;;;;;;;293.73;139.65;;;;;;;1.55;52.03;98790.66;4320111;82;21003;-91
2022/02/24 19:47:05;;;;;;;365.60;186.70;;;;;;;1.37;52.10;98784.49;4320972;80;21619;-90
2022/02/24 19:53:07;;;;;;;93.50;38.40;;;;;;;1.26;52.56;98790.52;4321863;80;21125;-90
2022/02/24 19:59:09;;;;;;;100.55;38.80;;;;;;;1.22;53.00;98779.58;4321146;80;21092;-90
2022/02/24 20:05:12;;;;;;;81.80;33.48;;;;;;;1.10;53.38;98774.59;4318587;81;21106;-91
2022/02/24 20:11:15;;;;;;;84.35;31.65;;;;;;;1.06;53.86;98785.23;4296925;80;20996;-90
2022/02/24 20:17:23;;;;;;;81.90;30.05;;;;;;;0.95;54.43;98787.21;4323485;80;21657;-91
2022/02/24 20:23:31;;;;;;;72.12;28.42;;;;;;;0.96;54.94;98781.50;4372554;79;21631;-90
2022/02/24 20:29:47;;;;;;;59.75;25.57;;;;;;;1.04;55.40;98772.63;4317879;80;21065;-91
2022/02/24 20:35:48;;;;;;;71.00;27.35;;;;;;;1.11;56.10;98772.16;4313396;80;21581;-91
2022/02/24 20:41:52;;;;;;;61.15;24.63;;;;;;;1.13;55.66;98758.58;4302509;80;21475;-92
2022/02/24 20:48:01;;;;;;;57.78;22.67;;;;;;;1.06;56.77;98773.11;4320572;80;21067;-91
2022/02/24 20:54:05;;;;;;;51.92;22.73;;;;;;;1.03;56.76;98762.97;4313769;80;21078;-90
2022/02/24 21:00:13;;;;;;;57.67;23.25;;;;;;;1.06;56.06;98756.13;4281812;82;21029;-93
2022/02/24 21:06:16;;;;;;;53.68;22.22;;;;;;;1.02;57.27;98775.38;4342906;80;21059;-91
2022/02/24 21:12:26;;;;;;;48.90;22.13;;;;;;;1.03;57.11;98770.25;4358425;80;20992;-91
2022/02/24 21:18:31;;;;;;;58.35;26.62;;;;;;;0.91;57.05;98778.95;4392153;79;21083;-93
2022/02/24 21:24:31;;;;;;;74.55;24.85;;;;;;;0.83;57.77;98764.92;4383009;79;20991;-92
2022/02/24 21:30:41;;;;;;;70.35;26.48;;;;;;;0.79;58.02;98766.67;4347697;80;21059;-91
2022/02/24 21:36:43;;;;;;;56.05;23.98;;;;;;;0.72;58.24;98764.22;4384020;80;21019;-90
2022/02/24 21:42:51;;;;;;;91.87;31.97;;;;;;;0.76;59.58;98761.92;4463061;77;21003;-92
2022/02/24 21:49:05;;;;;;;92.95;37.48;;;;;;;0.70;58.94;98760.50;4461646;78;21553;-91
2022/02/24 21:55:16;;;;;;;116.20;44.73;;;;;;;0.66;58.99;98764.91;4443758;79;21089;-90
2022/02/24 22:01:23;;;;;;;102.60;42.40;;;;;;;0.64;59.71;98775.78;4452070;78;21003;-90
2022/02/24 22:07:37;;;;;;;;;;;;;;;0.62;59.72;98768.02;4463837;79;20994;-91
2022/02/24 22:13:40;;;;;;;81.15;35.60;;;;;;;0.59;62.23;98780.77;4458626;79;20150;-90
2022/02/24 22:19:41;;;;;;;83.70;34.95;;;;;;;0.55;60.84;98775.75;4457852;78;21072;-92
2022/02/24 22:25:44;;;;;;;72.78;31.87;;;;;;;0.48;60.28;98756.59;4469497;78;21566;-90
2022/02/24 22:31:48;;;;;;;63.85;27.48;;;;;;;0.47;61.36;98746.91;4459124;78;20981;-91
2022/02/24 22:37:50;;;;;;;75.87;32.20;;;;;;;0.45;62.50;98743.75;4479345;78;21535;-91
2022/02/24 22:43:59;;;;;;;61.95;27.42;;;;;;;0.48;61.69;98747.16;4464444;78;20992;-90
2022/02/24 22:50:01;;;;;;;53.42;23.85;;;;;;;0.44;61.94;98746.77;4474481;78;21046;-90
2022/02/24 22:56:05;;;;;;;76.10;33.00;;;;;;;0.62;62.43;98724.11;4468072;77;21786;-90
2022/02/24 23:02:07;;;;;;;70.35;27.37;;;;;;;0.59;62.43;98719.36;4464200;78;21046;-90
2022/02/24 23:08:08;;;;;;;54.85;20.85;;;;;;;0.59;62.43;98719.36;4442950;77;20994;-94
2022/02/24 23:14:10;;;;;;;39.08;16.10;;;;;;;0.92;62.67;98729.36;4474763;77;20991;-91
2022/02/24 23:20:17;;;;;;;68.65;25.72;;;;;;;1.07;62.21;98736.95;4467910;77;21011;-90
2022/02/24 23:26:20;;;;;;;59.60;25.97;;;;;;;1.12;62.97;98739.48;4464280;78;21029;-93
2022/02/24 23:32:22;;;;;;;71.37;29.25;;;;;;;1.13;62.26;98742.41;4453810;79;21060;-91
2022/02/24 23:38:29;;;;;;;71.77;28.52;;;;;;;1.10;62.52;98746.28;4466313;78;21042;-93
2022/02/24 23:44:32;;;;;;;26.45;9.88;;;;;;;0.98;62.39;98744.80;4309938;80;21118;-90
2022/02/24 23:50:34;;;;;;;20.80;6.58;;;;;;;1.51;64.38;98712.81;4308828;80;21611;-92
2022/02/24 23:56:35;;;;;;;22.00;8.43;;;;;;;2.90;62.68;98709.20;4300698;80;21063;-90
